createdAt,value
2023-04-18T00:01:06.311Z,8.78
2023-04-18T00:03:32.970Z,8.78
2023-04-18T00:05:59.753Z,8.74
2023-04-18T00:08:26.281Z,8.69
2023-04-18T00:10:54.021Z,8.67
2023-04-18T00:13:20.669Z,8.62
2023-04-18T00:15:47.254Z,8.54
2023-04-18T00:18:17.200Z,8.52
2023-04-18T00:20:44.018Z,8.51
2023-04-18T00:23:14.010Z,8.41
2023-04-18T00:25:41.108Z,8.38
2023-04-18T00:28:07.822Z,8.32
2023-04-18T00:30:34.498Z,8.31
2023-04-18T00:33:01.472Z,8.27
2023-04-18T00:35:28.145Z,8.21
2023-04-18T00:37:54.761Z,8.16
2023-04-18T00:40:21.319Z,8.09
2023-04-18T00:42:47.892Z,8.11
2023-04-18T00:45:14.541Z,8.07
2023-04-18T00:47:41.250Z,8.03
2023-04-18T00:50:09.731Z,7.99
2023-04-18T00:52:36.960Z,7.93
2023-04-18T00:55:06.160Z,7.90
2023-04-18T00:57:33.217Z,7.84
2023-04-18T01:00:01.466Z,7.80
2023-04-18T01:02:30.473Z,7.77
2023-04-18T01:04:58.617Z,7.70
2023-04-18T01:07:26.794Z,7.68
2023-04-18T01:09:54.276Z,7.67
2023-04-18T01:12:20.888Z,7.62
2023-04-18T01:14:47.465Z,7.61
2023-04-18T01:17:14.035Z,7.55
2023-04-18T01:19:40.803Z,7.55
2023-04-18T01:22:07.399Z,7.49
2023-04-18T01:24:34.201Z,7.49
2023-04-18T01:27:03.049Z,7.44
2023-04-18T01:29:29.710Z,7.43
2023-04-18T01:31:56.304Z,7.43
2023-04-18T01:34:23.250Z,7.39
2023-04-18T01:36:49.861Z,7.37
2023-04-18T01:39:18.317Z,7.33
2023-04-18T01:41:45.072Z,7.29
2023-04-18T01:44:11.942Z,7.28
2023-04-18T01:46:39.920Z,7.23
2023-04-18T01:49:07.820Z,7.23
2023-04-18T01:51:34.428Z,7.22
2023-04-18T01:54:01.083Z,7.18
2023-04-18T01:56:27.625Z,7.15
2023-04-18T01:58:54.176Z,7.14
2023-04-18T02:01:20.884Z,7.09
2023-04-18T02:03:47.685Z,7.11
2023-04-18T02:06:14.377Z,7.10
2023-04-18T02:08:40.997Z,7.07
2023-04-18T02:11:07.871Z,7.04
2023-04-18T02:13:34.502Z,7.02
2023-04-18T02:16:01.066Z,6.99
2023-04-18T02:18:27.757Z,6.97
2023-04-18T02:20:54.339Z,6.91
2023-04-18T02:23:20.890Z,6.91
2023-04-18T02:25:47.529Z,6.89
2023-04-18T02:28:15.392Z,6.86
2023-04-18T02:30:42.009Z,6.82
2023-04-18T02:33:08.802Z,6.82
2023-04-18T02:35:37.262Z,6.80
2023-04-18T02:38:04.102Z,6.75
2023-04-18T02:40:30.738Z,6.71
2023-04-18T02:42:58.123Z,6.66
2023-04-18T02:45:24.764Z,6.64
2023-04-18T02:47:55.482Z,6.64
2023-04-18T02:50:22.990Z,6.60
2023-04-18T02:52:49.546Z,6.57
2023-04-18T02:55:16.300Z,6.50
2023-04-18T02:57:43.053Z,6.49
2023-04-18T03:00:10.112Z,6.49
2023-04-18T03:02:36.782Z,6.45
2023-04-18T03:05:03.580Z,6.43
2023-04-18T03:07:30.941Z,6.39
2023-04-18T03:09:57.861Z,6.40
2023-04-18T03:12:24.480Z,6.36
2023-04-18T03:14:51.093Z,6.35
2023-04-18T03:17:18.294Z,6.34
2023-04-18T03:19:46.227Z,6.28
2023-04-18T03:22:13.949Z,6.23
2023-04-18T03:24:40.615Z,6.23
2023-04-18T03:27:07.291Z,6.22
2023-04-18T03:29:34.033Z,6.20
2023-04-18T03:32:00.724Z,6.18
2023-04-18T03:34:27.430Z,6.15
2023-04-18T03:36:54.182Z,6.10
2023-04-18T03:39:20.914Z,6.11
2023-04-18T03:41:47.578Z,6.07
2023-04-18T03:44:14.319Z,6.05
2023-04-18T03:46:41.626Z,6.04
2023-04-18T03:49:08.515Z,6.00
2023-04-18T03:51:43.794Z,6.02
2023-04-18T03:54:10.344Z,5.97
2023-04-18T03:56:37.024Z,5.96
2023-04-18T03:59:03.703Z,5.93
2023-04-18T04:01:30.409Z,5.92
2023-04-18T04:03:57.085Z,5.92
2023-04-18T04:06:24.400Z,5.90
2023-04-18T04:08:50.946Z,5.92
2023-04-18T04:11:17.553Z,5.93
2023-04-18T04:13:44.122Z,5.96
2023-04-18T04:16:10.757Z,6.01
2023-04-18T04:18:37.351Z,6.02
2023-04-18T04:21:04.929Z,6.06
2023-04-18T04:23:31.529Z,6.06
2023-04-18T04:25:58.689Z,6.09
2023-04-18T04:28:26.201Z,6.12
2023-04-18T04:30:53.178Z,6.17
2023-04-18T04:33:21.247Z,6.20
2023-04-18T04:35:47.971Z,6.21
2023-04-18T04:38:15.354Z,6.23
2023-04-18T04:40:45.024Z,6.27
2023-04-18T04:43:12.594Z,6.28
2023-04-18T04:45:41.991Z,6.31
2023-04-18T04:48:09.678Z,6.33
2023-04-18T04:50:38.865Z,6.35
2023-04-18T04:53:06.362Z,6.36
2023-04-18T04:55:33.681Z,6.36
2023-04-18T04:58:00.732Z,6.39
2023-04-18T05:00:28.823Z,6.38
2023-04-18T05:02:57.597Z,6.42
2023-04-18T05:05:24.314Z,6.45
2023-04-18T05:07:51.067Z,6.47
2023-04-18T05:10:17.789Z,6.46
2023-04-18T05:12:44.470Z,6.49
2023-04-18T05:15:11.242Z,6.48
2023-04-18T05:17:37.832Z,6.50
2023-04-18T05:20:05.623Z,6.54
2023-04-18T05:22:35.971Z,6.53
2023-04-18T05:25:02.857Z,6.57
2023-04-18T05:27:29.558Z,6.56
2023-04-18T05:29:56.179Z,6.62
2023-04-18T05:32:22.866Z,6.63
2023-04-18T05:34:49.470Z,6.62
2023-04-18T05:37:15.989Z,6.66
2023-04-18T05:39:42.604Z,6.70
2023-04-18T05:42:10.782Z,6.71
2023-04-18T05:44:37.313Z,6.73
2023-04-18T05:47:06.141Z,6.74
2023-04-18T05:49:35.230Z,6.78
2023-04-18T05:52:01.982Z,6.80
2023-04-18T05:54:28.984Z,6.86
2023-04-18T05:56:57.181Z,6.88
2023-04-18T05:59:26.744Z,6.92
2023-04-18T06:01:53.481Z,6.93
2023-04-18T06:04:20.828Z,6.98
2023-04-18T06:06:47.805Z,7.00
2023-04-18T06:09:14.480Z,7.05
2023-04-18T06:11:41.586Z,7.06
2023-04-18T06:14:08.433Z,7.08
2023-04-18T06:16:37.908Z,7.14
2023-04-18T06:19:05.299Z,7.17
2023-04-18T06:21:32.060Z,7.22
2023-04-18T06:24:01.326Z,7.25
2023-04-18T06:26:28.064Z,7.29
2023-04-18T06:28:54.703Z,7.36
2023-04-18T06:31:21.465Z,7.43
2023-04-18T06:33:48.289Z,7.54
2023-04-18T06:36:15.181Z,7.61
2023-04-18T06:38:41.809Z,7.66
2023-04-18T06:41:09.421Z,7.79
2023-04-18T06:43:36.336Z,7.87
2023-04-18T06:46:05.270Z,7.99
2023-04-18T06:48:33.621Z,8.06
2023-04-18T06:51:00.160Z,8.16
2023-04-18T06:53:26.854Z,8.21
2023-04-18T06:55:53.668Z,8.22
2023-04-18T06:58:20.174Z,8.28
2023-04-18T07:00:51.632Z,8.32
2023-04-18T07:03:18.446Z,8.35
2023-04-18T07:05:45.467Z,8.40
2023-04-18T07:08:12.228Z,8.39
2023-04-18T07:10:38.748Z,8.42
2023-04-18T07:13:05.260Z,8.45
2023-04-18T07:15:31.801Z,8.42
2023-04-18T07:17:58.483Z,8.46
2023-04-18T07:20:25.150Z,8.45
2023-04-18T07:22:51.719Z,8.53
2023-04-18T07:25:19.220Z,8.55
2023-04-18T07:27:46.397Z,8.58
2023-04-18T07:30:13.577Z,8.61
2023-04-18T07:32:40.265Z,8.65
2023-04-18T07:35:07.554Z,8.72
2023-04-18T07:37:34.361Z,8.75
2023-04-18T07:40:00.954Z,8.83
2023-04-18T07:42:27.819Z,8.84
2023-04-18T07:44:58.864Z,8.88
2023-04-18T07:47:29.953Z,9.02
2023-04-18T07:49:57.514Z,9.17
2023-04-18T07:52:24.232Z,9.38
2023-04-18T07:54:51.128Z,9.50
2023-04-18T07:57:17.723Z,9.63
2023-04-18T07:59:44.343Z,9.78
2023-04-18T08:02:10.993Z,9.97
2023-04-18T08:04:37.646Z,10.29
2023-04-18T08:07:04.433Z,10.68
2023-04-18T08:09:30.950Z,10.87
2023-04-18T08:11:59.291Z,10.96
2023-04-18T08:14:25.866Z,11.01
2023-04-18T08:16:52.467Z,11.13
2023-04-18T08:19:19.094Z,11.21
2023-04-18T08:21:45.735Z,11.52
2023-04-18T08:24:12.407Z,11.95
2023-04-18T08:26:38.945Z,12.34
2023-04-18T08:29:06.336Z,12.45
2023-04-18T08:31:32.957Z,12.53
2023-04-18T08:33:59.577Z,12.77
2023-04-18T08:36:26.840Z,12.86
2023-04-18T08:38:53.399Z,12.65
2023-04-18T08:41:23.394Z,12.47
2023-04-18T08:43:50.069Z,12.31
2023-04-18T08:46:17.265Z,12.16
2023-04-18T08:48:44.507Z,12.04
2023-04-18T08:51:11.418Z,11.89
2023-04-18T08:53:39.560Z,11.85
2023-04-18T08:56:10.251Z,11.94
2023-04-18T08:58:37.179Z,11.98
2023-04-18T09:01:03.857Z,11.92
2023-04-18T09:03:39.624Z,11.84
2023-04-18T09:06:08.413Z,11.78
2023-04-18T09:08:35.466Z,11.84
2023-04-18T09:11:26.080Z,12.13
2023-04-18T09:13:56.140Z,12.12
2023-04-18T09:16:23.337Z,12.10
2023-04-18T09:19:19.348Z,12.13
2023-04-18T09:21:48.724Z,12.20
2023-04-18T09:24:21.360Z,12.39
2023-04-18T09:26:50.115Z,12.66
2023-04-18T09:29:20.567Z,12.84
2023-04-18T09:32:01.322Z,13.31
2023-04-18T09:34:29.095Z,13.41
2023-04-18T09:37:10.585Z,13.63
2023-04-18T09:39:41.156Z,13.53
2023-04-18T09:42:08.640Z,13.52
2023-04-18T09:44:35.285Z,13.55
2023-04-18T09:47:01.848Z,13.32
2023-04-18T09:49:28.892Z,13.13
2023-04-18T09:51:56.109Z,13.09
2023-04-18T09:54:32.528Z,12.99
2023-04-18T09:57:02.828Z,12.83
2023-04-18T09:59:41.424Z,12.73
2023-04-18T10:02:16.409Z,12.71
2023-04-18T10:04:46.821Z,12.65
2023-04-18T10:07:16.661Z,12.66
2023-04-18T10:09:46.520Z,12.68
2023-04-18T10:12:14.573Z,12.62
2023-04-18T10:14:43.118Z,12.55
2023-04-18T10:17:11.671Z,12.46
2023-04-18T10:19:41.928Z,12.39
2023-04-18T10:22:08.697Z,12.32
2023-04-18T10:24:56.087Z,12.38
2023-04-18T10:27:47.497Z,12.62
2023-04-18T10:30:15.756Z,12.88
2023-04-18T10:32:42.556Z,12.98
2023-04-18T10:35:11.165Z,13.08
2023-04-18T10:37:51.492Z,12.93
2023-04-18T10:40:34.922Z,12.89
2023-04-18T10:43:01.560Z,13.06
2023-04-18T10:45:33.049Z,13.15
2023-04-18T10:51:20.556Z,13.43
2023-04-18T10:53:52.326Z,13.77
2023-04-18T10:56:19.137Z,14.17
2023-04-18T10:58:50.954Z,14.35
2023-04-18T11:01:28.508Z,14.51
2023-04-18T11:03:57.243Z,14.71
2023-04-18T11:06:27.108Z,14.83
2023-04-18T11:09:11.239Z,15.11
2023-04-18T11:11:37.785Z,15.29
2023-04-18T11:14:04.296Z,15.35
2023-04-18T11:16:35.348Z,15.31
2023-04-18T11:19:20.870Z,15.04
2023-04-18T11:21:47.565Z,14.87
2023-04-18T11:24:23.009Z,14.69
2023-04-18T11:26:49.758Z,14.58
2023-04-18T11:29:17.997Z,14.43
2023-04-18T11:31:51.386Z,14.24
2023-04-18T11:34:17.937Z,13.98
2023-04-18T11:36:48.840Z,13.92
2023-04-18T11:39:15.393Z,13.72
2023-04-18T11:41:46.516Z,13.71
2023-04-18T11:44:13.215Z,13.70
2023-04-18T11:46:39.906Z,13.62
2023-04-18T11:49:06.516Z,13.58
2023-04-18T11:51:40.095Z,13.59
2023-04-18T11:54:26.991Z,13.50
2023-04-18T11:56:53.678Z,13.37
2023-04-18T11:59:20.215Z,13.44
2023-04-18T12:01:47.109Z,13.49
2023-04-18T12:04:14.246Z,13.43
2023-04-18T12:06:53.579Z,13.45
2023-04-18T12:09:25.035Z,13.51
2023-04-18T12:12:02.774Z,13.63
2023-04-18T12:14:30.127Z,13.83
2023-04-18T12:16:56.699Z,13.86
2023-04-18T12:19:28.082Z,13.88
2023-04-18T12:22:05.085Z,13.90
2023-04-18T12:24:32.425Z,13.97
2023-04-18T12:26:59.565Z,13.94
2023-04-18T12:29:28.678Z,13.92
2023-04-18T12:31:55.534Z,13.83
2023-04-18T12:34:22.175Z,13.83
2023-04-18T12:36:48.826Z,13.84
2023-04-18T12:39:15.354Z,13.87
2023-04-18T12:41:42.317Z,13.82
2023-04-18T12:44:09.271Z,13.91
2023-04-18T12:46:35.982Z,14.09
2023-04-18T12:49:02.694Z,14.08
2023-04-18T12:51:31.421Z,14.05
2023-04-18T12:53:59.051Z,13.98
2023-04-18T12:56:25.585Z,13.92
2023-04-18T12:58:52.200Z,13.95
2023-04-18T13:01:19.785Z,13.95
2023-04-18T13:03:53.426Z,13.91
2023-04-18T13:06:27.049Z,13.95
2023-04-18T13:08:53.821Z,13.90
2023-04-18T13:11:22.374Z,13.89
2023-04-18T13:13:49.010Z,13.78
2023-04-18T13:16:16.146Z,13.71
2023-04-18T13:18:42.681Z,13.67
2023-04-18T13:21:09.421Z,13.70
2023-04-18T13:23:35.987Z,13.71
2023-04-18T13:26:02.550Z,13.69
2023-04-18T13:28:30.295Z,13.69
2023-04-18T13:30:56.852Z,13.64
2023-04-18T13:33:23.417Z,13.73
2023-04-18T13:35:50.004Z,13.73
2023-04-18T13:38:16.576Z,13.79
2023-04-18T13:40:43.132Z,13.85
2023-04-18T13:43:12.753Z,13.95
2023-04-18T13:45:39.372Z,13.99
2023-04-18T13:48:06.614Z,14.02
2023-04-18T13:50:33.239Z,13.96
2023-04-18T13:52:59.776Z,13.95
2023-04-18T13:55:26.935Z,13.95
2023-04-18T13:57:53.515Z,13.98
2023-04-18T14:00:20.341Z,14.00
2023-04-18T14:02:47.043Z,14.04
2023-04-18T14:05:14.014Z,14.15
2023-04-18T14:07:40.637Z,14.17
2023-04-18T14:10:07.707Z,14.17
2023-04-18T14:12:34.475Z,14.21
2023-04-18T14:15:01.317Z,14.22
2023-04-18T14:17:27.884Z,14.22
2023-04-18T14:19:54.499Z,14.30
2023-04-18T14:22:21.093Z,14.34
2023-04-18T14:24:47.708Z,14.34
2023-04-18T14:27:14.466Z,14.32
2023-04-18T14:29:41.102Z,14.32
2023-04-18T14:32:07.857Z,14.31
2023-04-18T14:34:36.661Z,14.23
2023-04-18T14:37:04.377Z,14.20
2023-04-18T14:39:31.123Z,14.18
2023-04-18T14:41:57.881Z,14.18
2023-04-18T14:44:24.472Z,14.15
2023-04-18T14:46:51.201Z,14.16
2023-04-18T14:49:17.938Z,14.19
2023-04-18T14:51:45.000Z,14.31
2023-04-18T14:54:11.572Z,14.32
2023-04-18T14:56:38.130Z,14.41
2023-04-18T14:59:04.859Z,14.41
2023-04-18T15:01:31.780Z,14.38
2023-04-18T15:03:59.368Z,14.38
2023-04-18T15:06:27.180Z,14.43
2023-04-18T15:08:53.752Z,14.46
2023-04-18T15:11:20.313Z,14.51
2023-04-18T15:13:47.518Z,14.53
2023-04-18T15:16:14.200Z,14.58
2023-04-18T15:18:40.967Z,14.63
2023-04-18T15:21:07.525Z,14.66
2023-04-18T15:23:34.139Z,14.75
2023-04-18T15:26:01.016Z,14.72
2023-04-18T15:28:27.702Z,14.69
2023-04-18T15:30:54.360Z,14.61
2023-04-18T15:33:21.126Z,14.59
2023-04-18T15:35:47.847Z,14.60
2023-04-18T15:38:14.398Z,14.63
2023-04-18T15:40:41.020Z,14.61
2023-04-18T15:43:08.001Z,14.66
2023-04-18T15:45:34.934Z,14.68
2023-04-18T15:48:02.045Z,14.66
2023-04-18T15:50:28.818Z,14.66
2023-04-18T15:52:56.314Z,14.71
2023-04-18T15:55:23.085Z,14.76
2023-04-18T15:57:49.617Z,14.76
2023-04-18T16:00:16.729Z,14.78
2023-04-18T16:02:45.180Z,14.76
2023-04-18T16:05:13.078Z,14.72
2023-04-18T16:07:41.296Z,14.74
2023-04-18T16:10:10.296Z,14.78
2023-04-18T16:12:38.052Z,14.82
2023-04-18T16:15:09.417Z,14.81
2023-04-18T16:17:37.093Z,14.87
2023-04-18T16:20:05.973Z,14.92
2023-04-18T16:22:32.573Z,14.93
2023-04-18T16:24:59.168Z,14.91
2023-04-18T16:27:26.441Z,14.83
2023-04-18T16:29:53.641Z,14.70
2023-04-18T16:32:20.410Z,14.64
2023-04-18T16:34:47.179Z,14.53
2023-04-18T16:37:13.792Z,14.50
2023-04-18T16:39:40.384Z,14.50
2023-04-18T16:42:06.946Z,14.49
2023-04-18T16:44:33.581Z,14.46
2023-04-18T16:47:00.410Z,14.44
2023-04-18T16:49:27.023Z,14.45
2023-04-18T16:51:53.541Z,14.39
2023-04-18T16:54:20.116Z,14.33
2023-04-18T16:56:46.739Z,14.37
2023-04-18T16:59:13.575Z,14.38
2023-04-18T17:01:40.359Z,14.40
2023-04-18T17:04:07.154Z,14.44
2023-04-18T17:06:36.610Z,14.44
2023-04-18T17:09:06.142Z,14.39
2023-04-18T17:11:38.792Z,14.37
2023-04-18T17:14:06.334Z,14.35
2023-04-18T17:16:32.931Z,14.30
2023-04-18T17:18:59.508Z,14.22
2023-04-18T17:21:27.435Z,14.18
2023-04-18T17:23:54.606Z,14.12
2023-04-18T17:26:24.082Z,14.10
2023-04-18T17:28:50.599Z,14.05
2023-04-18T17:31:17.237Z,14.04
2023-04-18T17:33:44.623Z,14.03
2023-04-18T17:36:11.318Z,14.01
2023-04-18T17:38:37.918Z,14.00
2023-04-18T17:41:05.617Z,14.00
2023-04-18T17:43:32.592Z,13.98
2023-04-18T17:46:03.326Z,13.95
2023-04-18T17:48:29.914Z,13.91
2023-04-18T17:50:56.688Z,13.85
2023-04-18T17:53:23.338Z,13.79
2023-04-18T17:55:52.168Z,13.79
2023-04-18T17:58:19.928Z,13.78
2023-04-18T18:00:46.600Z,13.75
2023-04-18T18:03:14.476Z,13.70
2023-04-18T18:05:42.078Z,13.66
2023-04-18T18:08:08.733Z,13.62
2023-04-18T18:10:35.372Z,13.58
2023-04-18T18:13:01.978Z,13.55
2023-04-18T18:15:28.764Z,13.51
2023-04-18T18:17:55.734Z,13.45
2023-04-18T18:20:22.375Z,13.40
2023-04-18T18:22:49.116Z,13.34
2023-04-18T18:25:15.714Z,13.32
2023-04-18T18:27:42.368Z,13.28
2023-04-18T18:30:09.695Z,13.24
2023-04-18T18:32:36.333Z,13.23
2023-04-18T18:35:03.006Z,13.20
2023-04-18T18:37:29.852Z,13.16
2023-04-18T18:39:56.637Z,13.13
2023-04-18T18:42:24.099Z,13.07
2023-04-18T18:44:50.692Z,13.03
2023-04-18T18:47:20.060Z,12.97
2023-04-18T18:49:51.993Z,12.88
2023-04-18T18:52:18.632Z,12.84
2023-04-18T18:54:45.158Z,12.79
2023-04-18T18:57:11.761Z,12.75
2023-04-18T18:59:38.360Z,12.71
2023-04-18T19:02:05.087Z,12.67
2023-04-18T19:04:32.346Z,12.63
2023-04-18T19:06:59.343Z,12.58
2023-04-18T19:09:26.044Z,12.51
2023-04-18T19:11:52.749Z,12.46
2023-04-18T19:14:19.395Z,12.39
2023-04-18T19:16:46.294Z,12.34
2023-04-18T19:19:13.107Z,12.29
2023-04-18T19:21:45.561Z,12.28
2023-04-18T19:24:12.925Z,12.23
2023-04-18T19:26:41.740Z,12.24
2023-04-18T19:29:10.609Z,12.23
2023-04-18T19:31:37.291Z,12.20
2023-04-18T19:34:03.922Z,12.18
2023-04-18T19:36:31.795Z,12.16
2023-04-18T19:38:58.368Z,12.11
2023-04-18T19:41:25.894Z,12.11
2023-04-18T19:43:52.398Z,12.05
2023-04-18T19:46:18.966Z,12.04
2023-04-18T19:48:45.516Z,12.02
2023-04-18T19:51:12.097Z,11.98
2023-04-18T19:53:38.874Z,11.96
2023-04-18T19:56:05.623Z,11.95
2023-04-18T19:58:44.755Z,11.93
2023-04-18T20:01:13.882Z,11.87
2023-04-18T20:03:40.865Z,11.85
2023-04-18T20:06:08.540Z,11.83
2023-04-18T20:08:36.939Z,11.78
2023-04-18T20:11:11.455Z,11.74
2023-04-18T20:13:38.126Z,11.70
2023-04-18T20:16:06.328Z,11.66
2023-04-18T20:18:35.622Z,11.63
2023-04-18T20:21:03.831Z,11.59
2023-04-18T20:23:30.423Z,11.56
2023-04-18T20:25:56.985Z,11.48
2023-04-18T20:28:23.662Z,11.45
2023-04-18T20:30:50.364Z,11.44
2023-04-18T20:33:16.974Z,11.39
2023-04-18T20:35:44.520Z,11.37
2023-04-18T20:38:12.313Z,11.33
2023-04-18T20:40:39.016Z,11.30
2023-04-18T20:43:06.774Z,11.25
2023-04-18T20:45:37.430Z,11.23
2023-04-18T20:48:04.384Z,11.18
2023-04-18T20:50:30.958Z,11.14
2023-04-18T20:53:00.355Z,11.14
2023-04-18T20:55:27.029Z,11.11
2023-04-18T20:57:53.616Z,11.08
2023-04-18T21:00:20.215Z,11.04
2023-04-18T21:02:46.863Z,11.00
2023-04-18T21:05:13.541Z,10.97
2023-04-18T21:07:40.205Z,10.94
2023-04-18T21:10:07.240Z,10.91
2023-04-18T21:12:33.885Z,10.89
2023-04-18T21:15:00.443Z,10.87
2023-04-18T21:17:27.054Z,10.84
2023-04-18T21:19:54.886Z,10.83
2023-04-18T21:22:21.572Z,10.79
2023-04-18T21:24:48.114Z,10.78
2023-04-18T21:27:15.877Z,10.75
2023-04-18T21:29:42.445Z,10.72
2023-04-18T21:32:09.143Z,10.69
2023-04-18T21:34:35.725Z,10.66
2023-04-18T21:37:02.465Z,10.65
2023-04-18T21:39:28.977Z,10.59
2023-04-18T21:41:55.672Z,10.56
2023-04-18T21:44:22.271Z,10.55
2023-04-18T21:46:48.765Z,10.52
2023-04-18T21:49:15.555Z,10.50
2023-04-18T21:51:42.072Z,10.50
2023-04-18T21:54:08.845Z,10.48
2023-04-18T21:56:35.720Z,10.46
2023-04-18T21:59:02.229Z,10.43
2023-04-18T22:01:29.084Z,10.42
2023-04-18T22:03:56.088Z,10.41
2023-04-18T22:06:23.291Z,10.40
2023-04-18T22:08:51.549Z,10.38
2023-04-18T22:11:18.958Z,10.30
2023-04-18T22:13:47.295Z,10.34
2023-04-18T22:16:13.948Z,10.31
2023-04-18T22:18:40.911Z,10.32
2023-04-18T22:21:09.452Z,10.27
2023-04-18T22:23:36.008Z,10.26
2023-04-18T22:26:02.525Z,10.23
2023-04-18T22:28:29.168Z,10.18
2023-04-18T22:30:55.756Z,10.14
2023-04-18T22:33:22.468Z,10.12
2023-04-18T22:35:49.138Z,10.11
2023-04-18T22:38:16.152Z,10.09
2023-04-18T22:40:42.766Z,10.04
2023-04-18T22:43:09.302Z,10.05
2023-04-18T22:45:35.813Z,10.03
2023-04-18T22:48:02.379Z,10.02
2023-04-18T22:50:30.073Z,10.00
2023-04-18T22:52:57.257Z,9.96
2023-04-18T22:55:23.808Z,9.95
2023-04-18T22:57:50.420Z,9.96
2023-04-18T23:00:17.065Z,9.91
2023-04-18T23:02:44.064Z,9.90
2023-04-18T23:05:11.507Z,9.84
2023-04-18T23:07:38.216Z,9.86
2023-04-18T23:10:06.526Z,9.84
2023-04-18T23:12:33.278Z,9.82
2023-04-18T23:14:59.855Z,9.81
2023-04-18T23:17:26.439Z,9.79
2023-04-18T23:19:52.994Z,9.78
2023-04-18T23:22:20.304Z,9.75
2023-04-18T23:24:46.844Z,9.74
2023-04-18T23:27:13.346Z,9.72
2023-04-18T23:29:39.941Z,9.68
2023-04-18T23:32:06.600Z,9.65
2023-04-18T23:34:33.279Z,9.66
2023-04-18T23:37:00.573Z,9.68
2023-04-18T23:39:27.161Z,9.66
2023-04-18T23:41:53.668Z,9.65
2023-04-18T23:44:20.256Z,9.64
2023-04-18T23:46:47.325Z,9.65
2023-04-18T23:49:14.241Z,9.63
2023-04-18T23:51:40.799Z,9.64
2023-04-18T23:54:07.539Z,9.63
2023-04-18T23:56:34.483Z,9.61
2023-04-18T23:59:01.076Z,9.59
